createdAt,value
2022-09-24T00:01:16.298Z,3.60
2022-09-24T00:03:45.429Z,3.60
2022-09-24T00:06:14.290Z,3.80
2022-09-24T00:08:41.995Z,3.60
2022-09-24T00:11:12.017Z,3.60
2022-09-24T00:13:39.839Z,3.70
2022-09-24T00:16:12.474Z,4.10
2022-09-24T00:18:39.544Z,3.70
2022-09-24T00:21:21.153Z,3.70
2022-09-24T00:24:00.440Z,3.80
2022-09-24T00:26:46.146Z,3.20
2022-09-24T00:29:16.350Z,3.80
2022-09-24T00:31:43.234Z,3.30
2022-09-24T00:34:10.400Z,3.10
2022-09-24T00:36:37.863Z,3.50
2022-09-24T00:39:04.904Z,3.30
2022-09-24T00:41:33.956Z,3.30
2022-09-24T00:44:01.383Z,3.20
2022-09-24T00:46:44.330Z,3.40
2022-09-24T00:49:16.693Z,3.60
2022-09-24T00:51:46.853Z,3.70
2022-09-24T00:54:19.729Z,4.00
2022-09-24T00:56:48.933Z,3.70
2022-09-24T00:59:18.357Z,3.40
2022-09-24T01:01:47.387Z,3.60
2022-09-24T01:04:15.999Z,3.70
2022-09-24T01:06:42.645Z,3.50
2022-09-24T01:09:09.804Z,3.60
2022-09-24T01:11:47.727Z,3.70
2022-09-24T01:14:49.734Z,3.50
2022-09-24T01:17:32.200Z,3.60
2022-09-24T01:20:34.091Z,3.90
2022-09-24T01:23:17.469Z,3.70
2022-09-24T01:25:58.385Z,3.90
2022-09-24T01:28:25.160Z,3.50
2022-09-24T01:31:00.144Z,3.70
2022-09-24T01:33:31.265Z,3.70
2022-09-24T01:36:06.382Z,3.60
2022-09-24T01:38:38.646Z,3.60
2022-09-24T01:41:11.580Z,3.80
2022-09-24T01:43:39.224Z,4.00
2022-09-24T01:46:10.223Z,4.00
2022-09-24T01:48:37.783Z,3.40
2022-09-24T01:51:13.391Z,3.80
2022-09-24T01:53:48.490Z,3.80
2022-09-24T01:56:27.261Z,3.90
2022-09-24T01:59:01.819Z,3.80
2022-09-24T02:01:56.600Z,3.70
2022-09-24T02:04:25.751Z,3.70
2022-09-24T02:07:04.647Z,4.10
2022-09-24T02:09:34.275Z,3.70
2022-09-24T02:12:17.094Z,3.90
2022-09-24T02:14:54.350Z,4.50
2022-09-24T02:17:24.094Z,4.30
2022-09-24T02:19:50.830Z,4.10
2022-09-24T02:22:17.897Z,4.50
2022-09-24T02:24:57.019Z,4.70
2022-09-24T02:27:28.616Z,4.70
2022-09-24T02:29:59.447Z,5.00
2022-09-24T02:32:30.568Z,4.70
2022-09-24T02:35:02.665Z,4.80
2022-09-24T02:37:34.083Z,5.20
2022-09-24T02:40:01.317Z,5.20
2022-09-24T02:42:28.646Z,4.90
2022-09-24T02:44:57.399Z,4.80
2022-09-24T02:47:24.357Z,5.20
2022-09-24T02:49:51.002Z,5.20
2022-09-24T02:52:18.772Z,5.30
2022-09-24T02:54:45.418Z,5.50
2022-09-24T02:57:12.264Z,5.20
2022-09-24T02:59:39.190Z,5.60
2022-09-24T03:02:06.404Z,5.50
2022-09-24T03:04:33.353Z,5.50
2022-09-24T03:07:00.395Z,5.80
2022-09-24T03:09:27.201Z,6.00
2022-09-24T03:11:54.291Z,5.50
2022-09-24T03:14:21.258Z,6.10
2022-09-24T03:16:48.113Z,6.40
2022-09-24T03:19:15.080Z,6.30
2022-09-24T03:21:41.670Z,6.40
2022-09-24T03:24:08.522Z,6.60
2022-09-24T03:26:36.169Z,5.90
2022-09-24T03:29:02.785Z,6.30
2022-09-24T03:31:29.508Z,6.00
2022-09-24T03:33:57.081Z,6.30
2022-09-24T03:36:26.018Z,6.00
2022-09-24T03:38:56.235Z,6.80
2022-09-24T03:41:25.024Z,6.70
2022-09-24T03:43:51.962Z,6.70
2022-09-24T03:46:19.180Z,7.00
2022-09-24T03:48:47.319Z,7.60
2022-09-24T03:51:16.547Z,8.10
2022-09-24T03:53:43.219Z,8.00
2022-09-24T03:56:11.862Z,8.50
2022-09-24T03:58:39.296Z,9.00
2022-09-24T04:01:10.591Z,9.00
2022-09-24T04:03:37.488Z,9.30
2022-09-24T04:06:07.522Z,10.50
2022-09-24T04:08:34.233Z,10.90
2022-09-24T04:11:01.024Z,10.30
2022-09-24T04:13:28.137Z,9.40
2022-09-24T04:15:56.706Z,8.70
2022-09-24T04:18:23.519Z,8.40
2022-09-24T04:20:50.353Z,7.80
2022-09-24T04:23:17.110Z,7.10
2022-09-24T04:25:43.983Z,7.40
2022-09-24T04:28:10.957Z,7.30
2022-09-24T04:30:38.775Z,7.30
2022-09-24T04:33:06.431Z,7.40
2022-09-24T04:35:35.909Z,8.40
2022-09-24T04:38:03.920Z,9.10
2022-09-24T04:40:31.142Z,8.60
2022-09-24T04:42:59.577Z,8.30
2022-09-24T04:45:26.950Z,7.70
2022-09-24T04:47:57.319Z,8.30
2022-09-24T04:50:29.268Z,8.20
2022-09-24T04:52:56.427Z,8.30
2022-09-24T04:55:25.418Z,8.50
2022-09-24T04:57:52.311Z,8.10
2022-09-24T05:00:21.057Z,8.30
2022-09-24T05:02:48.436Z,8.40
2022-09-24T05:05:15.335Z,8.50
2022-09-24T05:07:42.634Z,8.80
2022-09-24T05:10:09.919Z,8.50
2022-09-24T05:12:36.746Z,9.00
2022-09-24T05:15:04.638Z,8.90
2022-09-24T05:17:31.762Z,8.60
2022-09-24T05:19:59.533Z,8.50
2022-09-24T05:22:30.045Z,8.90
2022-09-24T05:24:57.049Z,9.20
2022-09-24T05:27:24.198Z,8.40
2022-09-24T05:29:51.165Z,8.50
2022-09-24T05:32:20.162Z,8.40
2022-09-24T05:34:47.252Z,8.30
2022-09-24T05:37:15.281Z,8.20
2022-09-24T05:39:42.452Z,8.10
2022-09-24T05:42:15.078Z,8.50
2022-09-24T05:44:44.812Z,8.80
2022-09-24T05:47:13.797Z,7.70
2022-09-24T05:49:41.191Z,8.50
2022-09-24T05:52:08.625Z,8.10
2022-09-24T05:54:35.440Z,8.50
2022-09-24T05:57:02.182Z,8.50
2022-09-24T05:59:28.891Z,8.20
2022-09-24T06:01:55.978Z,8.40
2022-09-24T06:04:23.059Z,8.30
2022-09-24T06:06:50.286Z,7.60
2022-09-24T06:09:17.210Z,7.90
2022-09-24T06:11:44.420Z,8.30
2022-09-24T06:14:11.306Z,8.40
2022-09-24T06:16:38.703Z,8.60
2022-09-24T06:19:05.844Z,8.00
2022-09-24T06:21:32.703Z,8.10
2022-09-24T06:23:59.458Z,8.10
2022-09-24T06:26:27.558Z,7.70
2022-09-24T06:28:54.481Z,7.80
2022-09-24T06:31:21.512Z,8.00
2022-09-24T06:33:48.697Z,8.60
2022-09-24T06:36:15.334Z,8.60
2022-09-24T06:38:42.353Z,8.00
2022-09-24T06:41:10.072Z,8.40
2022-09-24T06:43:36.838Z,8.10
2022-09-24T06:46:08.383Z,8.20
2022-09-24T06:48:38.299Z,8.20
2022-09-24T06:51:08.240Z,8.20
2022-09-24T06:53:35.065Z,8.10
2022-09-24T06:56:05.699Z,8.30
2022-09-24T06:58:33.648Z,8.40
2022-09-24T07:01:02.961Z,7.40
2022-09-24T07:03:34.923Z,8.50
2022-09-24T07:06:08.088Z,9.30
2022-09-24T07:08:35.087Z,7.80
2022-09-24T07:11:02.230Z,8.00
2022-09-24T07:13:29.236Z,8.50
2022-09-24T07:15:55.913Z,8.40
2022-09-24T07:18:23.145Z,7.50
2022-09-24T07:20:53.873Z,8.30
2022-09-24T07:23:21.608Z,8.30
2022-09-24T07:25:48.936Z,8.40
2022-09-24T07:28:15.994Z,8.10
2022-09-24T07:30:42.968Z,8.20
2022-09-24T07:33:10.064Z,7.80
2022-09-24T07:35:39.951Z,9.00
2022-09-24T07:38:12.054Z,8.30
2022-09-24T07:40:39.278Z,8.70
2022-09-24T07:43:07.489Z,8.30
2022-09-24T07:45:34.343Z,8.50
2022-09-24T07:48:02.666Z,8.40
2022-09-24T07:50:31.297Z,7.80
2022-09-24T07:53:00.705Z,7.00
2022-09-24T07:55:27.552Z,7.50
2022-09-24T07:57:55.538Z,7.60
2022-09-24T08:00:23.465Z,7.70
2022-09-24T08:02:51.832Z,7.90
2022-09-24T08:05:18.635Z,8.00
2022-09-24T08:07:53.006Z,8.40
2022-09-24T08:10:19.809Z,8.20
2022-09-24T08:12:46.667Z,7.50
2022-09-24T08:15:13.809Z,8.50
2022-09-24T08:17:40.207Z,8.30
2022-09-24T08:20:07.102Z,8.60
2022-09-24T08:22:34.046Z,8.90
2022-09-24T08:25:01.221Z,8.70
2022-09-24T08:27:28.330Z,9.00
2022-09-24T08:29:58.811Z,8.70
2022-09-24T08:32:25.580Z,9.90
2022-09-24T08:34:52.839Z,9.90
2022-09-24T08:37:19.875Z,9.50
2022-09-24T08:39:46.780Z,10.30
2022-09-24T08:42:22.720Z,9.20
2022-09-24T08:45:09.361Z,9.40
2022-09-24T08:47:45.756Z,9.00
2022-09-24T08:50:25.571Z,9.40
2022-09-24T08:53:13.837Z,9.00
2022-09-24T08:55:46.337Z,9.20
2022-09-24T08:58:25.207Z,10.80
2022-09-24T09:00:57.664Z,10.50
2022-09-24T09:03:39.503Z,8.00
2022-09-24T09:06:53.808Z,8.30
2022-09-24T09:09:25.648Z,8.10
2022-09-24T09:11:59.180Z,8.20
2022-09-24T09:14:42.466Z,8.10
2022-09-24T09:17:42.288Z,7.70
2022-09-24T09:20:18.814Z,8.10
2022-09-24T09:22:48.874Z,8.10
2022-09-24T09:25:39.666Z,8.20
2022-09-24T09:28:17.401Z,8.80
2022-09-24T09:31:06.758Z,8.30
2022-09-24T09:33:45.577Z,8.90
2022-09-24T09:36:45.641Z,9.40
2022-09-24T09:39:42.645Z,8.20
2022-09-24T09:42:15.390Z,8.10
2022-09-24T09:44:46.143Z,8.00
2022-09-24T09:47:40.744Z,8.60
2022-09-24T09:50:36.739Z,8.70
2022-09-24T09:53:05.422Z,8.40
2022-09-24T09:55:37.602Z,8.50
2022-09-24T09:58:19.912Z,8.70
2022-09-24T10:00:49.976Z,8.90
2022-09-24T10:03:27.094Z,17.90
2022-09-24T10:06:00.511Z,8.70
2022-09-24T10:08:27.841Z,18.70
2022-09-24T10:11:05.659Z,12.20
2022-09-24T10:13:32.520Z,9.60
2022-09-24T10:16:12.040Z,16.50
2022-09-24T10:18:50.499Z,68.10
2022-09-24T10:21:37.325Z,13.30
2022-09-24T10:24:11.856Z,9.20
2022-09-24T10:26:45.445Z,8.00
2022-09-24T10:29:35.589Z,8.40
2022-09-24T10:32:04.257Z,8.20
2022-09-24T10:34:31.475Z,8.30
2022-09-24T10:37:08.765Z,8.50
2022-09-24T10:39:37.712Z,8.40
2022-09-24T10:42:07.979Z,8.90
2022-09-24T10:44:36.826Z,8.70
2022-09-24T10:47:15.222Z,8.40
2022-09-24T10:50:07.429Z,8.00
2022-09-24T10:52:40.369Z,7.60
2022-09-24T10:55:28.839Z,6.90
2022-09-24T10:58:02.916Z,6.90
2022-09-24T11:00:39.557Z,6.50
2022-09-24T11:03:19.043Z,6.30
2022-09-24T11:05:57.099Z,6.50
2022-09-24T11:08:41.853Z,6.20
2022-09-24T11:11:23.973Z,5.90
2022-09-24T11:14:05.895Z,5.40
2022-09-24T11:16:39.035Z,5.60
2022-09-24T11:19:23.276Z,5.40
2022-09-24T11:22:24.821Z,5.00
2022-09-24T11:25:19.138Z,4.70
2022-09-24T11:28:01.915Z,5.00
2022-09-24T11:31:00.446Z,5.20
2022-09-24T11:33:59.667Z,5.40
2022-09-24T11:36:43.578Z,5.30
2022-09-24T11:39:47.468Z,5.60
2022-09-24T11:42:33.831Z,5.30
2022-09-24T11:45:12.582Z,5.50
2022-09-24T11:47:55.779Z,5.70
2022-09-24T11:51:10.166Z,5.80
2022-09-24T11:54:00.067Z,5.70
2022-09-24T11:56:33.984Z,5.00
2022-09-24T11:59:35.282Z,5.60
2022-09-24T12:02:26.773Z,5.90
2022-09-24T12:05:08.221Z,5.70
2022-09-24T12:07:43.063Z,5.40
2022-09-24T12:11:00.130Z,4.90
2022-09-24T12:13:55.595Z,5.50
2022-09-24T12:16:26.811Z,5.70
2022-09-24T12:19:01.849Z,5.70
2022-09-24T12:21:34.166Z,5.90
2022-09-24T12:24:06.127Z,5.30
2022-09-24T12:26:38.018Z,5.80
2022-09-24T12:29:34.815Z,5.70
2022-09-24T12:32:36.960Z,5.70
2022-09-24T12:35:30.557Z,6.10
2022-09-24T12:38:14.096Z,5.70
2022-09-24T12:41:18.759Z,5.90
2022-09-24T12:44:16.136Z,6.50
2022-09-24T12:46:58.977Z,6.10
2022-09-24T12:49:25.608Z,5.70
2022-09-24T12:51:58.307Z,5.70
2022-09-24T12:54:38.009Z,5.80
2022-09-24T12:57:10.877Z,5.60
2022-09-24T13:00:12.916Z,5.80
2022-09-24T13:02:48.224Z,6.00
2022-09-24T13:05:17.356Z,6.70
2022-09-24T13:08:15.320Z,6.00
2022-09-24T13:10:56.305Z,6.30
2022-09-24T13:13:26.803Z,6.20
2022-09-24T13:16:16.781Z,7.30
2022-09-24T13:18:51.413Z,6.80
2022-09-24T13:21:22.925Z,6.80
2022-09-24T13:23:50.056Z,7.10
2022-09-24T13:26:35.851Z,7.10
2022-09-24T13:29:22.212Z,7.00
2022-09-24T13:31:54.920Z,6.90
2022-09-24T13:34:32.133Z,6.80
2022-09-24T13:37:21.534Z,7.00
2022-09-24T13:40:02.093Z,7.00
2022-09-24T13:42:40.496Z,7.60
2022-09-24T13:45:13.904Z,6.90
2022-09-24T13:47:54.524Z,6.20
2022-09-24T13:50:37.855Z,7.10
2022-09-24T13:53:29.632Z,6.50
2022-09-24T13:56:00.005Z,7.00
2022-09-24T13:58:31.781Z,6.30
2022-09-24T14:01:02.472Z,7.10
2022-09-24T14:03:32.978Z,6.50
2022-09-24T14:06:10.350Z,6.30
2022-09-24T14:08:40.456Z,6.60
2022-09-24T14:11:15.865Z,6.40
2022-09-24T14:13:45.850Z,6.40
2022-09-24T14:16:18.436Z,5.40
2022-09-24T14:18:45.719Z,5.70
2022-09-24T14:21:30.583Z,5.10
2022-09-24T14:24:03.106Z,5.40
2022-09-24T14:26:57.922Z,5.50
2022-09-24T14:29:59.376Z,5.00
2022-09-24T14:32:37.839Z,5.30
2022-09-24T14:35:12.279Z,5.30
2022-09-24T14:37:46.266Z,5.70
2022-09-24T14:40:15.667Z,5.40
2022-09-24T14:42:46.036Z,5.40
2022-09-24T14:45:20.671Z,6.00
2022-09-24T14:47:47.955Z,5.70
2022-09-24T14:50:37.835Z,6.40
2022-09-24T14:53:22.187Z,6.20
2022-09-24T14:55:49.942Z,6.10
2022-09-24T14:58:29.088Z,5.60
2022-09-24T15:00:59.300Z,5.80
2022-09-24T15:03:38.145Z,5.90
2022-09-24T15:06:35.313Z,5.90
2022-09-24T15:09:07.460Z,6.00
2022-09-24T15:11:43.677Z,6.10
2022-09-24T15:14:18.275Z,6.30
2022-09-24T15:16:49.190Z,6.10
2022-09-24T15:19:19.948Z,6.20
2022-09-24T15:21:48.521Z,6.60
2022-09-24T15:24:16.320Z,6.60
2022-09-24T15:26:48.530Z,6.60
2022-09-24T15:29:21.899Z,7.50
2022-09-24T15:31:50.148Z,7.60
2022-09-24T15:34:19.956Z,7.70
2022-09-24T15:36:48.669Z,7.30
2022-09-24T15:39:18.209Z,8.60
2022-09-24T15:41:45.373Z,8.40
2022-09-24T15:44:20.146Z,8.90
2022-09-24T15:46:48.150Z,9.40
2022-09-24T15:49:16.306Z,10.10
2022-09-24T15:51:43.260Z,10.40
2022-09-24T15:54:10.028Z,10.20
2022-09-24T15:56:39.122Z,10.20
2022-09-24T15:59:15.542Z,11.20
2022-09-24T16:01:42.916Z,10.90
2022-09-24T16:04:12.569Z,11.60
2022-09-24T16:06:39.563Z,12.30
2022-09-24T16:09:06.659Z,11.40
2022-09-24T16:11:33.387Z,12.70
2022-09-24T16:14:00.566Z,11.80
2022-09-24T16:16:27.704Z,12.30
2022-09-24T16:18:56.237Z,12.00
2022-09-24T16:21:22.997Z,12.40
2022-09-24T16:23:57.027Z,11.60
2022-09-24T16:26:24.496Z,12.60
2022-09-24T16:28:51.705Z,12.20
2022-09-24T16:31:21.359Z,12.90
2022-09-24T16:33:48.560Z,13.80
2022-09-24T16:36:15.639Z,12.90
2022-09-24T16:38:42.255Z,12.60
2022-09-24T16:41:10.511Z,12.20
2022-09-24T16:43:37.660Z,12.70
2022-09-24T16:46:08.604Z,12.40
2022-09-24T16:48:35.808Z,12.60
2022-09-24T16:51:06.422Z,12.00
2022-09-24T16:53:36.576Z,11.80
2022-09-24T16:56:23.520Z,12.40
2022-09-24T16:58:51.855Z,11.90
2022-09-24T17:01:20.518Z,11.90
2022-09-24T17:03:55.341Z,11.80
2022-09-24T17:06:24.804Z,11.40
2022-09-24T17:09:10.169Z,11.70
2022-09-24T17:11:40.000Z,11.90
2022-09-24T17:14:08.239Z,11.90
2022-09-24T17:16:35.046Z,11.90
2022-09-24T17:19:01.816Z,11.80
2022-09-24T17:21:28.644Z,12.00
2022-09-24T17:23:55.298Z,11.90
2022-09-24T17:26:22.852Z,12.70
2022-09-24T17:28:52.974Z,12.30
2022-09-24T17:31:23.000Z,12.40
2022-09-24T17:34:09.548Z,12.80
2022-09-24T17:36:37.036Z,12.80
2022-09-24T17:39:05.787Z,12.40
2022-09-24T17:41:33.264Z,13.60
2022-09-24T17:44:09.308Z,13.80
2022-09-24T17:46:37.573Z,13.70
2022-09-24T17:49:04.620Z,13.20
2022-09-24T17:51:36.339Z,13.60
2022-09-24T17:54:09.634Z,13.60
2022-09-24T17:56:40.332Z,13.70
2022-09-24T17:59:09.047Z,13.60
2022-09-24T18:01:37.427Z,14.70
2022-09-24T18:04:06.493Z,13.10
2022-09-24T18:06:36.212Z,13.70
2022-09-24T18:09:03.866Z,13.70
2022-09-24T18:11:33.766Z,12.90
2022-09-24T18:14:02.373Z,13.40
2022-09-24T18:16:32.042Z,13.70
2022-09-24T18:19:00.759Z,12.90
2022-09-24T18:21:28.430Z,13.70
2022-09-24T18:23:57.073Z,13.10
2022-09-24T18:26:26.590Z,14.10
2022-09-24T18:29:27.650Z,13.70
2022-09-24T18:31:54.754Z,13.90
2022-09-24T18:34:21.671Z,14.10
2022-09-24T18:36:48.484Z,13.90
2022-09-24T18:39:23.706Z,14.30
2022-09-24T18:41:51.868Z,14.20
2022-09-24T18:44:19.730Z,14.00
2022-09-24T18:46:46.925Z,14.20
2022-09-24T18:49:13.658Z,13.90
2022-09-24T18:51:40.824Z,13.90
2022-09-24T18:54:12.453Z,13.70
2022-09-24T18:56:39.812Z,13.90
2022-09-24T18:59:15.138Z,13.30
2022-09-24T19:01:43.121Z,13.90
2022-09-24T19:04:11.580Z,13.20
2022-09-24T19:06:40.773Z,13.80
2022-09-24T19:09:08.683Z,13.30
2022-09-24T19:11:35.739Z,13.80
2022-09-24T19:14:05.237Z,13.60
2022-09-24T19:16:32.435Z,13.60
2022-09-24T19:19:00.984Z,13.90
2022-09-24T19:21:28.291Z,13.90
2022-09-24T19:23:57.639Z,14.30
2022-09-24T19:26:26.717Z,13.50
2022-09-24T19:28:53.918Z,13.50
2022-09-24T19:31:22.173Z,13.10
2022-09-24T19:33:50.113Z,13.20
2022-09-24T19:36:19.896Z,13.10
2022-09-24T19:38:47.526Z,14.10
2022-09-24T19:41:19.180Z,13.40
2022-09-24T19:43:46.108Z,13.70
2022-09-24T19:46:15.628Z,13.30
2022-09-24T19:48:44.648Z,13.70
2022-09-24T19:51:28.989Z,13.90
2022-09-24T19:53:58.571Z,13.20
2022-09-24T19:56:25.501Z,14.00
2022-09-24T19:58:54.467Z,13.20
2022-09-24T20:01:23.305Z,13.20
2022-09-24T20:03:50.563Z,13.20
2022-09-24T20:06:22.713Z,13.50
2022-09-24T20:08:49.578Z,13.80
2022-09-24T20:11:20.338Z,14.00
2022-09-24T20:13:52.668Z,13.50
2022-09-24T20:16:22.320Z,13.80
2022-09-24T20:18:51.512Z,14.20
2022-09-24T20:21:19.151Z,14.70
2022-09-24T20:23:47.387Z,14.30
2022-09-24T20:26:33.907Z,15.20
2022-09-24T20:29:02.048Z,15.20
2022-09-24T20:31:29.210Z,16.00
2022-09-24T20:33:56.311Z,16.00
2022-09-24T20:36:24.707Z,16.30
2022-09-24T20:38:52.910Z,16.50
2022-09-24T20:41:23.180Z,16.70
2022-09-24T20:43:50.961Z,16.40
2022-09-24T20:46:24.026Z,17.40
2022-09-24T20:48:53.294Z,16.50
2022-09-24T20:51:21.524Z,17.90
2022-09-24T20:53:49.007Z,17.40
2022-09-24T20:56:17.847Z,16.80
2022-09-24T20:58:45.364Z,17.20
2022-09-24T21:01:12.349Z,17.60
2022-09-24T21:03:45.136Z,18.10
2022-09-24T21:06:13.129Z,18.60
2022-09-24T21:08:42.576Z,18.50
2022-09-24T21:11:11.733Z,18.10
2022-09-24T21:13:51.618Z,18.20
2022-09-24T21:16:20.642Z,18.10
2022-09-24T21:18:48.658Z,19.00
2022-09-24T21:21:17.419Z,19.10
2022-09-24T21:23:45.961Z,18.80
2022-09-24T21:26:32.924Z,19.60
2022-09-24T21:29:03.555Z,19.30
2022-09-24T21:31:32.717Z,20.20
2022-09-24T21:34:02.814Z,19.70
2022-09-24T21:36:31.697Z,19.20
2022-09-24T21:39:00.849Z,19.50
2022-09-24T21:41:35.809Z,20.10
2022-09-24T21:44:03.224Z,20.10
2022-09-24T21:46:33.436Z,20.60
2022-09-24T21:49:01.153Z,19.50
2022-09-24T21:51:29.982Z,21.00
2022-09-24T21:54:01.022Z,20.60
2022-09-24T21:56:28.801Z,19.70
2022-09-24T21:58:56.381Z,20.20
2022-09-24T22:01:28.523Z,20.40
2022-09-24T22:04:00.005Z,20.70
2022-09-24T22:06:29.037Z,21.30
2022-09-24T22:09:02.498Z,21.40
2022-09-24T22:11:29.939Z,21.80
2022-09-24T22:14:01.074Z,20.20
2022-09-24T22:16:28.736Z,20.90
2022-09-24T22:18:55.795Z,20.30
2022-09-24T22:21:22.688Z,21.20
2022-09-24T22:23:49.633Z,20.60
2022-09-24T22:26:16.516Z,20.00
2022-09-24T22:28:43.285Z,19.70
2022-09-24T22:31:12.515Z,19.70
2022-09-24T22:33:58.661Z,19.30
2022-09-24T22:36:27.307Z,18.80
2022-09-24T22:38:56.374Z,18.60
2022-09-24T22:41:24.043Z,18.70
2022-09-24T22:43:51.758Z,18.60
2022-09-24T22:46:20.188Z,17.30
2022-09-24T22:48:47.506Z,17.00
2022-09-24T22:51:14.710Z,17.30
2022-09-24T22:53:42.271Z,17.70
2022-09-24T22:56:13.507Z,16.60
2022-09-24T22:58:41.511Z,16.70
2022-09-24T23:01:09.797Z,15.10
2022-09-24T23:03:37.793Z,14.50
2022-09-24T23:06:07.624Z,14.10
2022-09-24T23:08:35.919Z,14.30
2022-09-24T23:11:16.814Z,14.20
2022-09-24T23:13:45.385Z,13.60
2022-09-24T23:16:14.892Z,13.20
2022-09-24T23:18:44.255Z,12.80
2022-09-24T23:21:13.808Z,12.40
2022-09-24T23:23:40.461Z,11.60
2022-09-24T23:26:17.093Z,11.80
2022-09-24T23:28:45.156Z,12.10
2022-09-24T23:31:14.011Z,12.30
2022-09-24T23:33:42.043Z,11.20
2022-09-24T23:36:11.284Z,10.90
2022-09-24T23:38:38.384Z,11.50
2022-09-24T23:41:09.452Z,11.20
2022-09-24T23:43:36.551Z,11.70
2022-09-24T23:46:06.345Z,12.60
2022-09-24T23:48:33.454Z,12.30
2022-09-24T23:51:00.639Z,12.60
2022-09-24T23:53:27.506Z,12.50
2022-09-24T23:55:54.942Z,12.80
2022-09-24T23:58:23.499Z,12.70
